sensor_id;sensor_type;location;lat;lon;timestamp;pressure;altitude;pressure_sealevel;temperature;humidity
85130;BME280;75492;49.310;20.046;2024-03-23T00:57:32;91348.81;;;6.78;71.14
85130;BME280;75492;49.310;20.046;2024-03-23T01:02:33;91342.47;;;6.95;70.25
85130;BME280;75492;49.310;20.046;2024-03-23T01:07:35;91320.41;;;7.22;68.82
85130;BME280;75492;49.310;20.046;2024-03-23T01:12:37;91317.75;;;6.98;69.96
85130;BME280;75492;49.310;20.046;2024-03-23T01:17:39;91328.75;;;6.59;71.04
85130;BME280;75492;49.310;20.046;2024-03-23T01:22:40;91325.66;;;6.57;70.75
85130;BME280;75492;49.310;20.046;2024-03-23T01:27:43;91315.31;;;6.93;68.76
85130;BME280;75492;49.310;20.046;2024-03-23T01:32:44;91300.81;;;7.06;68.64
85130;BME280;75492;49.310;20.046;2024-03-23T01:37:46;91304.34;;;7.47;65.74
85130;BME280;75492;49.310;20.046;2024-03-23T01:42:56;91301.16;;;7.17;66.58
85130;BME280;75492;49.310;20.046;2024-03-23T01:47:58;91283.56;;;7.28;65.43
85130;BME280;75492;49.310;20.046;2024-03-23T01:53:00;91290.50;;;7.17;68.23
85130;BME280;75492;49.310;20.046;2024-03-23T01:58:04;91293.47;;;7.15;67.99
85130;BME280;75492;49.310;20.046;2024-03-23T02:03:23;91287.41;;;7.43;66.15
85130;BME280;75492;49.310;20.046;2024-03-23T02:08:25;91277.59;;;7.06;67.93
85130;BME280;75492;49.310;20.046;2024-03-23T02:13:28;91278.16;;;7.00;67.79
85130;BME280;75492;49.310;20.046;2024-03-23T02:18:29;91256.91;;;7.03;66.71
85130;BME280;75492;49.310;20.046;2024-03-23T02:23:32;91256.72;;;7.24;65.75
85130;BME280;75492;49.310;20.046;2024-03-23T02:28:34;91249.84;;;7.23;66.38
85130;BME280;75492;49.310;20.046;2024-03-23T02:33:35;91244.41;;;7.20;66.28
85130;BME280;75492;49.310;20.046;2024-03-23T02:38:38;91229.91;;;7.33;65.57
85130;BME280;75492;49.310;20.046;2024-03-23T02:43:39;91226.19;;;7.38;66.76
85130;BME280;75492;49.310;20.046;2024-03-23T02:48:41;91220.41;;;7.36;66.01
85130;BME280;75492;49.310;20.046;2024-03-23T02:53:44;91191.97;;;7.15;66.73
85130;BME280;75492;49.310;20.046;2024-03-23T02:58:45;91206.09;;;7.16;68.95
85130;BME280;75492;49.310;20.046;2024-03-23T03:03:47;91205.03;;;7.04;69.47
85130;BME280;75492;49.310;20.046;2024-03-23T03:08:49;91204.47;;;7.67;66.92
85130;BME280;75492;49.310;20.046;2024-03-23T03:13:51;91204.78;;;7.66;67.01
85130;BME280;75492;49.310;20.046;2024-03-23T03:18:53;91213.63;;;7.82;67.60
85130;BME280;75492;49.310;20.046;2024-03-23T03:23:56;91196.59;;;7.59;68.25
85130;BME280;75492;49.310;20.046;2024-03-23T03:28:57;91204.06;;;7.25;70.06
85130;BME280;75492;49.310;20.046;2024-03-23T03:33:58;91203.06;;;7.58;68.24
85130;BME280;75492;49.310;20.046;2024-03-23T03:39:01;91199.34;;;7.62;67.83
85130;BME280;75492;49.310;20.046;2024-03-23T03:44:03;91198.97;;;7.48;67.75
85130;BME280;75492;49.310;20.046;2024-03-23T03:49:04;91191.56;;;7.13;68.20
85130;BME280;75492;49.310;20.046;2024-03-23T03:54:07;91184.66;;;7.40;66.87
85130;BME280;75492;49.310;20.046;2024-03-23T03:59:08;91186.59;;;7.27;67.56
85130;BME280;75492;49.310;20.046;2024-03-23T04:04:10;91180.28;;;7.48;68.07
85130;BME280;75492;49.310;20.046;2024-03-23T04:09:12;91179.81;;;7.30;67.30
85130;BME280;75492;49.310;20.046;2024-03-23T04:14:14;91184.50;;;7.21;69.04
85130;BME280;75492;49.310;20.046;2024-03-23T04:19:15;91185.25;;;7.34;68.07
85130;BME280;75492;49.310;20.046;2024-03-23T04:24:18;91164.97;;;7.32;67.49
85130;BME280;75492;49.310;20.046;2024-03-23T04:29:19;91157.44;;;7.22;68.33
85130;BME280;75492;49.310;20.046;2024-03-23T04:34:21;91162.94;;;7.42;67.00
85130;BME280;75492;49.310;20.046;2024-03-23T04:39:24;91146.25;;;7.17;67.85
85130;BME280;75492;49.310;20.046;2024-03-23T04:44:25;91139.25;;;7.56;67.58
85130;BME280;75492;49.310;20.046;2024-03-23T04:49:27;91142.13;;;7.79;65.92
85130;BME280;75492;49.310;20.046;2024-03-23T04:54:30;91133.06;;;7.68;66.21
85130;BME280;75492;49.310;20.046;2024-03-23T04:59:31;91135.31;;;7.82;66.92
85130;BME280;75492;49.310;20.046;2024-03-23T05:04:32;91123.47;;;8.30;65.06
85130;BME280;75492;49.310;20.046;2024-03-23T05:09:35;91111.84;;;7.75;66.93
85130;BME280;75492;49.310;20.046;2024-03-23T05:14:37;91115.75;;;7.93;66.07
85130;BME280;75492;49.310;20.046;2024-03-23T05:19:38;91115.91;;;8.00;64.70
85130;BME280;75492;49.310;20.046;2024-03-23T05:24:41;91107.97;;;7.88;64.87
85130;BME280;75492;49.310;20.046;2024-03-23T05:29:43;91111.50;;;8.08;65.64
85130;BME280;75492;49.310;20.046;2024-03-23T05:34:44;91106.66;;;8.14;65.06
85130;BME280;75492;49.310;20.046;2024-03-23T05:39:47;91097.59;;;8.02;64.36
85130;BME280;75492;49.310;20.046;2024-03-23T05:44:48;91096.75;;;8.49;62.68
85130;BME280;75492;49.310;20.046;2024-03-23T05:49:50;91096.63;;;8.42;63.50
85130;BME280;75492;49.310;20.046;2024-03-23T05:54:53;91076.63;;;8.20;65.21
85130;BME280;75492;49.310;20.046;2024-03-23T05:59:54;91090.81;;;8.95;60.68
85130;BME280;75492;49.310;20.046;2024-03-23T06:04:56;91103.38;;;9.10;61.04
85130;BME280;75492;49.310;20.046;2024-03-23T06:09:59;91116.22;;;9.40;61.72
85130;BME280;75492;49.310;20.046;2024-03-23T06:15:00;91108.00;;;9.33;61.18
85130;BME280;75492;49.310;20.046;2024-03-23T06:20:02;91114.38;;;9.05;62.52
85130;BME280;75492;49.310;20.046;2024-03-23T06:25:06;91105.44;;;8.98;63.52
85130;BME280;75492;49.310;20.046;2024-03-23T06:30:08;91117.09;;;9.48;62.93
85130;BME280;75492;49.310;20.046;2024-03-23T06:35:10;91114.47;;;9.51;61.70
85130;BME280;75492;49.310;20.046;2024-03-23T06:40:12;91103.34;;;9.72;61.26
85130;BME280;75492;49.310;20.046;2024-03-23T06:45:14;91088.03;;;9.96;61.57
85130;BME280;75492;49.310;20.046;2024-03-23T06:50:15;91086.31;;;9.84;62.52
85130;BME280;75492;49.310;20.046;2024-03-23T06:55:18;91085.84;;;10.51;61.19
85130;BME280;75492;49.310;20.046;2024-03-23T07:00:20;91063.22;;;10.52;58.83
85130;BME280;75492;49.310;20.046;2024-03-23T07:05:22;91040.31;;;10.92;58.06
85130;BME280;75492;49.310;20.046;2024-03-23T07:10:25;91041.28;;;11.06;57.15
85130;BME280;75492;49.310;20.046;2024-03-23T07:15:26;91038.91;;;11.01;56.79
85130;BME280;75492;49.310;20.046;2024-03-23T07:20:27;91047.00;;;11.05;55.45
85130;BME280;75492;49.310;20.046;2024-03-23T07:25:30;91055.59;;;11.55;54.03
85130;BME280;75492;49.310;20.046;2024-03-23T07:30:32;91053.16;;;11.80;54.56
85130;BME280;75492;49.310;20.046;2024-03-23T07:35:33;91054.72;;;12.29;51.14
85130;BME280;75492;49.310;20.046;2024-03-23T07:40:36;91030.66;;;12.58;51.78
85130;BME280;75492;49.310;20.046;2024-03-23T07:45:37;91042.41;;;12.94;50.23
85130;BME280;75492;49.310;20.046;2024-03-23T07:50:39;91020.88;;;13.05;49.04
85130;BME280;75492;49.310;20.046;2024-03-23T07:55:41;90997.09;;;13.32;46.95
85130;BME280;75492;49.310;20.046;2024-03-23T08:00:43;91001.38;;;13.58;44.49
85130;BME280;75492;49.310;20.046;2024-03-23T08:05:45;90991.00;;;13.60;44.20
85130;BME280;75492;49.310;20.046;2024-03-23T08:10:51;90969.78;;;14.05;43.22
85130;BME280;75492;49.310;20.046;2024-03-23T08:15:56;90973.66;;;14.04;43.99
85130;BME280;75492;49.310;20.046;2024-03-23T08:20:58;90971.72;;;13.72;43.54
85130;BME280;75492;49.310;20.046;2024-03-23T08:26:01;90975.56;;;14.14;41.37
85130;BME280;75492;49.310;20.046;2024-03-23T08:31:07;90961.69;;;14.05;41.57
85130;BME280;75492;49.310;20.046;2024-03-23T08:36:10;90975.19;;;13.94;41.07
85130;BME280;75492;49.310;20.046;2024-03-23T08:41:13;90987.91;;;14.01;42.11
85130;BME280;75492;49.310;20.046;2024-03-23T08:46:15;90952.34;;;14.42;41.20
85130;BME280;75492;49.310;20.046;2024-03-23T08:51:17;90952.28;;;14.77;39.94
85130;BME280;75492;49.310;20.046;2024-03-23T08:56:20;90951.75;;;15.11;39.71
85130;BME280;75492;49.310;20.046;2024-03-23T09:01:21;90931.94;;;15.32;38.68
85130;BME280;75492;49.310;20.046;2024-03-23T09:06:23;90920.75;;;15.86;37.47
85130;BME280;75492;49.310;20.046;2024-03-23T09:11:25;90917.72;;;15.80;33.18
85130;BME280;75492;49.310;20.046;2024-03-23T09:16:27;90915.44;;;16.20;32.50
85130;BME280;75492;49.310;20.046;2024-03-23T09:21:28;90910.91;;;16.03;35.96
85130;BME280;75492;49.310;20.046;2024-03-23T09:26:31;90902.78;;;16.06;34.40
85130;BME280;75492;49.310;20.046;2024-03-23T09:31:33;90903.72;;;15.85;35.47
85130;BME280;75492;49.310;20.046;2024-03-23T09:36:34;90902.91;;;15.92;35.12
85130;BME280;75492;49.310;20.046;2024-03-23T09:41:37;90899.13;;;16.23;36.03
85130;BME280;75492;49.310;20.046;2024-03-23T09:46:38;90886.69;;;16.30;35.56
85130;BME280;75492;49.310;20.046;2024-03-23T09:51:40;90883.34;;;16.49;32.45
85130;BME280;75492;49.310;20.046;2024-03-23T09:56:43;90891.69;;;16.65;31.29
85130;BME280;75492;49.310;20.046;2024-03-23T10:01:45;90883.63;;;16.24;31.79
85130;BME280;75492;49.310;20.046;2024-03-23T10:06:46;90866.00;;;16.05;33.92
85130;BME280;75492;49.310;20.046;2024-03-23T10:11:49;90861.41;;;16.02;33.24
85130;BME280;75492;49.310;20.046;2024-03-23T10:16:50;90864.47;;;16.42;32.75
85130;BME280;75492;49.310;20.046;2024-03-23T10:21:52;90851.81;;;16.32;32.09
85130;BME280;75492;49.310;20.046;2024-03-23T10:26:57;90851.56;;;16.53;32.17
85130;BME280;75492;49.310;20.046;2024-03-23T10:32:08;90846.44;;;16.59;31.96
85130;BME280;75492;49.310;20.046;2024-03-23T10:37:10;90848.06;;;16.56;32.42
85130;BME280;75492;49.310;20.046;2024-03-23T10:42:13;90842.00;;;16.76;32.20
85130;BME280;75492;49.310;20.046;2024-03-23T10:47:14;90834.00;;;16.65;33.15
85130;BME280;75492;49.310;20.046;2024-03-23T10:52:16;90813.34;;;16.75;33.19
85130;BME280;75492;49.310;20.046;2024-03-23T10:57:25;90809.09;;;16.43;31.37
85130;BME280;75492;49.310;20.046;2024-03-23T11:02:28;90797.63;;;16.28;33.40
85130;BME280;75492;49.310;20.046;2024-03-23T11:07:30;90779.09;;;16.57;34.71
85130;BME280;75492;49.310;20.046;2024-03-23T11:12:33;90771.22;;;16.66;32.61
85130;BME280;75492;49.310;20.046;2024-03-23T11:17:34;90764.44;;;16.51;34.09
85130;BME280;75492;49.310;20.046;2024-03-23T11:22:40;90768.09;;;16.68;32.94
85130;BME280;75492;49.310;20.046;2024-03-23T11:27:44;90742.03;;;16.47;34.63
85130;BME280;75492;49.310;20.046;2024-03-23T11:32:46;90727.66;;;16.50;34.80
85130;BME280;75492;49.310;20.046;2024-03-23T11:38:01;90733.78;;;16.27;33.08
85130;BME280;75492;49.310;20.046;2024-03-23T11:43:05;90715.75;;;16.71;33.50
85130;BME280;75492;49.310;20.046;2024-03-23T11:48:07;90715.16;;;16.87;33.59
85130;BME280;75492;49.310;20.046;2024-03-23T11:53:14;90704.59;;;16.92;33.76
85130;BME280;75492;49.310;20.046;2024-03-23T11:58:18;90684.50;;;17.37;32.86
85130;BME280;75492;49.310;20.046;2024-03-23T12:03:20;90663.72;;;17.27;34.35
85130;BME280;75492;49.310;20.046;2024-03-23T12:08:22;90660.53;;;17.08;33.76
85130;BME280;75492;49.310;20.046;2024-03-23T12:13:25;90662.84;;;17.10;34.61
85130;BME280;75492;49.310;20.046;2024-03-23T12:18:27;90655.28;;;16.98;33.39
85130;BME280;75492;49.310;20.046;2024-03-23T12:23:28;90655.09;;;16.85;33.81
85130;BME280;75492;49.310;20.046;2024-03-23T12:28:32;90646.97;;;16.85;34.43
85130;BME280;75492;49.310;20.046;2024-03-23T12:33:33;90638.44;;;17.10;33.67
85130;BME280;75492;49.310;20.046;2024-03-23T12:38:34;90619.50;;;16.83;36.86
85130;BME280;75492;49.310;20.046;2024-03-23T12:43:37;90618.31;;;16.84;34.46
85130;BME280;75492;49.310;20.046;2024-03-23T12:48:38;90604.81;;;17.04;34.56
85130;BME280;75492;49.310;20.046;2024-03-23T12:53:40;90602.31;;;17.13;34.67
85130;BME280;75492;49.310;20.046;2024-03-23T12:58:43;90588.78;;;17.33;37.84
85130;BME280;75492;49.310;20.046;2024-03-23T13:03:46;90596.84;;;17.16;35.09
85130;BME280;75492;49.310;20.046;2024-03-23T13:08:47;90592.47;;;16.99;35.47
85130;BME280;75492;49.310;20.046;2024-03-23T13:13:50;90559.41;;;16.84;37.40
85130;BME280;75492;49.310;20.046;2024-03-23T13:18:51;90533.88;;;16.58;36.36
85130;BME280;75492;49.310;20.046;2024-03-23T13:23:53;90529.34;;;16.75;36.07
85130;BME280;75492;49.310;20.046;2024-03-23T13:28:57;90521.59;;;16.97;35.69
85130;BME280;75492;49.310;20.046;2024-03-23T13:33:58;90515.47;;;17.13;35.14
85130;BME280;75492;49.310;20.046;2024-03-23T13:39:00;90522.22;;;17.25;37.60
85130;BME280;75492;49.310;20.046;2024-03-23T13:44:02;90513.31;;;17.24;36.09
85130;BME280;75492;49.310;20.046;2024-03-23T13:49:04;90511.94;;;17.16;34.41
85130;BME280;75492;49.310;20.046;2024-03-23T13:54:06;90517.06;;;17.30;33.93
85130;BME280;75492;49.310;20.046;2024-03-23T13:59:08;90510.13;;;16.89;33.74
85130;BME280;75492;49.310;20.046;2024-03-23T14:04:10;90510.03;;;17.69;33.99
85130;BME280;75492;49.310;20.046;2024-03-23T14:09:11;90505.88;;;17.08;35.72
85130;BME280;75492;49.310;20.046;2024-03-23T14:14:14;90510.59;;;17.44;35.36
85130;BME280;75492;49.310;20.046;2024-03-23T14:19:15;90499.00;;;17.60;34.25
85130;BME280;75492;49.310;20.046;2024-03-23T14:24:17;90484.06;;;17.32;35.62
85130;BME280;75492;49.310;20.046;2024-03-23T14:29:19;90483.56;;;18.42;34.52
85130;BME280;75492;49.310;20.046;2024-03-23T14:34:21;90480.81;;;17.77;35.12
85130;BME280;75492;49.310;20.046;2024-03-23T14:39:23;90480.25;;;17.65;35.52
85130;BME280;75492;49.310;20.046;2024-03-23T14:44:25;90483.25;;;16.95;35.42
85130;BME280;75492;49.310;20.046;2024-03-23T14:49:27;90486.94;;;17.25;35.31
85130;BME280;75492;49.310;20.046;2024-03-23T14:54:28;90506.56;;;17.12;36.82
85130;BME280;75492;49.310;20.046;2024-03-23T14:59:31;90497.31;;;16.90;45.56
85130;BME280;75492;49.310;20.046;2024-03-23T15:04:33;90495.03;;;14.72;39.36
85130;BME280;75492;49.310;20.046;2024-03-23T15:09:34;90507.50;;;16.12;46.46
85130;BME280;75492;49.310;20.046;2024-03-23T15:14:37;90509.78;;;16.40;41.88
85130;BME280;75492;49.310;20.046;2024-03-23T15:19:38;90513.38;;;15.52;39.32
85130;BME280;75492;49.310;20.046;2024-03-23T15:24:40;90523.28;;;15.66;42.33
85130;BME280;75492;49.310;20.046;2024-03-23T15:29:43;90532.84;;;14.30;42.22
85130;BME280;75492;49.310;20.046;2024-03-23T15:34:44;90539.50;;;14.67;41.75
85130;BME280;75492;49.310;20.046;2024-03-23T15:39:45;90543.66;;;15.44;42.02
85130;BME280;75492;49.310;20.046;2024-03-23T15:44:48;90543.66;;;15.13;44.47
85130;BME280;75492;49.310;20.046;2024-03-23T15:49:50;90546.97;;;14.52;42.21
85130;BME280;75492;49.310;20.046;2024-03-23T15:54:51;90562.28;;;14.18;43.37
85130;BME280;75492;49.310;20.046;2024-03-23T15:59:54;90646.47;;;12.92;49.70
85130;BME280;75492;49.310;20.046;2024-03-23T16:04:55;90666.41;;;11.73;55.19
85130;BME280;75492;49.310;20.046;2024-03-23T16:09:57;90696.31;;;10.84;58.87
85130;BME280;75492;49.310;20.046;2024-03-23T16:14:59;90725.25;;;10.54;59.44
85130;BME280;75492;49.310;20.046;2024-03-23T16:20:03;90713.88;;;9.89;61.58
85130;BME280;75492;49.310;20.046;2024-03-23T16:25:05;90731.41;;;9.46;62.88
85130;BME280;75492;49.310;20.046;2024-03-23T16:30:09;90757.63;;;9.30;64.72
85130;BME280;75492;49.310;20.046;2024-03-23T16:35:12;90770.06;;;9.15;66.03
85130;BME280;75492;49.310;20.046;2024-03-23T16:40:13;90784.94;;;9.12;67.01
85130;BME280;75492;49.310;20.046;2024-03-23T16:45:16;90795.25;;;8.84;67.45
85130;BME280;75492;49.310;20.046;2024-03-23T16:50:18;90814.81;;;8.22;68.95
85130;BME280;75492;49.310;20.046;2024-03-23T16:55:19;90815.13;;;8.17;72.96
85130;BME280;75492;49.310;20.046;2024-03-23T17:00:22;90830.47;;;8.40;72.28
85130;BME280;75492;49.310;20.046;2024-03-23T17:05:24;90827.38;;;7.99;71.54
85130;BME280;75492;49.310;20.046;2024-03-23T17:10:25;90854.91;;;7.61;74.62
85130;BME280;75492;49.310;20.046;2024-03-23T17:15:28;90854.75;;;7.73;75.41
85130;BME280;75492;49.310;20.046;2024-03-23T17:20:29;90846.38;;;7.55;74.81
85130;BME280;75492;49.310;20.046;2024-03-23T17:25:31;90850.94;;;7.54;74.99
85130;BME280;75492;49.310;20.046;2024-03-23T17:30:34;90853.91;;;7.69;73.84
85130;BME280;75492;49.310;20.046;2024-03-23T17:35:35;90847.56;;;7.58;72.35
85130;BME280;75492;49.310;20.046;2024-03-23T17:40:36;90842.63;;;7.40;73.12
85130;BME280;75492;49.310;20.046;2024-03-23T17:45:39;90841.75;;;7.36;73.55
85130;BME280;75492;49.310;20.046;2024-03-23T17:50:41;90838.13;;;7.09;74.85
85130;BME280;75492;49.310;20.046;2024-03-23T17:55:42;90835.56;;;7.32;74.48
85130;BME280;75492;49.310;20.046;2024-03-23T18:00:45;90830.88;;;7.45;72.68
85130;BME280;75492;49.310;20.046;2024-03-23T18:05:46;90822.25;;;7.51;72.13
85130;BME280;75492;49.310;20.046;2024-03-23T18:10:48;90819.44;;;7.44;72.04
85130;BME280;75492;49.310;20.046;2024-03-23T18:15:57;90799.06;;;8.17;70.01
85130;BME280;75492;49.310;20.046;2024-03-23T18:21:00;90807.56;;;7.61;72.81
85130;BME280;75492;49.310;20.046;2024-03-23T18:26:02;90789.22;;;8.02;71.81
85130;BME280;75492;49.310;20.046;2024-03-23T18:31:05;90802.41;;;7.52;73.39
85130;BME280;75492;49.310;20.046;2024-03-23T18:36:06;90806.75;;;6.71;78.53
85130;BME280;75492;49.310;20.046;2024-03-23T18:41:08;90829.97;;;6.86;76.81
85130;BME280;75492;49.310;20.046;2024-03-23T18:46:11;90854.25;;;6.65;77.65
85130;BME280;75492;49.310;20.046;2024-03-23T18:51:13;90864.00;;;6.57;76.33
85130;BME280;75492;49.310;20.046;2024-03-23T18:56:14;90851.84;;;6.00;75.17
85130;BME280;75492;49.310;20.046;2024-03-23T19:01:18;90853.50;;;6.05;75.73
85130;BME280;75492;49.310;20.046;2024-03-23T19:06:20;90859.72;;;5.69;75.05
85130;BME280;75492;49.310;20.046;2024-03-23T19:11:21;90856.47;;;5.75;76.88
85130;BME280;75492;49.310;20.046;2024-03-23T19:16:24;90862.09;;;5.86;76.89
85130;BME280;75492;49.310;20.046;2024-03-23T19:21:26;90856.16;;;5.77;77.59
85130;BME280;75492;49.310;20.046;2024-03-23T19:26:27;90851.41;;;5.70;77.39
85130;BME280;75492;49.310;20.046;2024-03-23T19:31:30;90849.41;;;5.67;76.71
85130;BME280;75492;49.310;20.046;2024-03-23T19:36:32;90838.69;;;5.51;77.75
85130;BME280;75492;49.310;20.046;2024-03-23T19:41:34;90836.13;;;5.55;75.00
85130;BME280;75492;49.310;20.046;2024-03-23T19:46:37;90842.19;;;5.68;73.29
85130;BME280;75492;49.310;20.046;2024-03-23T19:51:38;90846.38;;;5.40;75.49
85130;BME280;75492;49.310;20.046;2024-03-23T19:56:40;90840.88;;;5.21;76.37
85130;BME280;75492;49.310;20.046;2024-03-23T20:01:43;90827.00;;;5.15;75.97
85130;BME280;75492;49.310;20.046;2024-03-23T20:06:45;90816.16;;;5.08;77.47
85130;BME280;75492;49.310;20.046;2024-03-23T20:11:46;90821.16;;;4.98;76.23
85130;BME280;75492;49.310;20.046;2024-03-23T20:16:50;90816.44;;;5.19;73.93
85130;BME280;75492;49.310;20.046;2024-03-23T20:21:51;90821.94;;;4.98;76.35
85130;BME280;75492;49.310;20.046;2024-03-23T20:26:53;90810.31;;;4.90;76.81
85130;BME280;75492;49.310;20.046;2024-03-23T20:31:56;90803.09;;;4.79;76.91
85130;BME280;75492;49.310;20.046;2024-03-23T20:36:57;90783.38;;;4.67;78.18
85130;BME280;75492;49.310;20.046;2024-03-23T20:41:58;90799.56;;;4.87;76.81
85130;BME280;75492;49.310;20.046;2024-03-23T20:47:01;90812.75;;;4.83;75.24
85130;BME280;75492;49.310;20.046;2024-03-23T20:52:03;90822.41;;;4.63;76.48
85130;BME280;75492;49.310;20.046;2024-03-23T20:57:05;90797.59;;;4.47;75.15
85130;BME280;75492;49.310;20.046;2024-03-23T21:02:08;90798.78;;;4.37;74.64
85130;BME280;75492;49.310;20.046;2024-03-23T21:07:10;90812.16;;;4.16;77.59
85130;BME280;75492;49.310;20.046;2024-03-23T21:12:11;90809.94;;;3.94;77.58
85130;BME280;75492;49.310;20.046;2024-03-23T21:17:14;90818.00;;;4.10;77.47
85130;BME280;75492;49.310;20.046;2024-03-23T21:22:15;90793.66;;;3.62;78.26
85130;BME280;75492;49.310;20.046;2024-03-23T21:27:17;90808.94;;;3.65;78.47
85130;BME280;75492;49.310;20.046;2024-03-23T21:32:20;90812.19;;;3.71;78.76
85130;BME280;75492;49.310;20.046;2024-03-23T21:37:21;90806.34;;;3.77;79.21
85130;BME280;75492;49.310;20.046;2024-03-23T21:42:23;90805.34;;;3.82;78.98
85130;BME280;75492;49.310;20.046;2024-03-23T21:47:25;90792.28;;;3.89;78.69
85130;BME280;75492;49.310;20.046;2024-03-23T21:52:27;90796.31;;;3.50;80.17
85130;BME280;75492;49.310;20.046;2024-03-23T21:57:28;90795.06;;;3.47;79.45
85130;BME280;75492;49.310;20.046;2024-03-23T22:02:31;90778.34;;;3.80;79.31
85130;BME280;75492;49.310;20.046;2024-03-23T22:07:33;90773.50;;;3.94;80.03
85130;BME280;75492;49.310;20.046;2024-03-23T22:12:34;90790.34;;;3.65;79.30
85130;BME280;75492;49.310;20.046;2024-03-23T22:17:37;90795.91;;;3.72;79.56
85130;BME280;75492;49.310;20.046;2024-03-23T22:22:39;90792.31;;;3.56;78.50
85130;BME280;75492;49.310;20.046;2024-03-23T22:27:40;90778.78;;;3.70;77.67
85130;BME280;75492;49.310;20.046;2024-03-23T22:32:44;90767.69;;;3.35;79.03
85130;BME280;75492;49.310;20.046;2024-03-23T22:37:46;90756.78;;;3.48;78.43
85130;BME280;75492;49.310;20.046;2024-03-23T22:42:48;90762.50;;;3.71;77.44
85130;BME280;75492;49.310;20.046;2024-03-23T22:47:50;90748.00;;;3.36;77.03
85130;BME280;75492;49.310;20.046;2024-03-23T22:52:52;90751.81;;;3.59;76.93
85130;BME280;75492;49.310;20.046;2024-03-23T22:57:53;90775.88;;;3.75;77.06
85130;BME280;75492;49.310;20.046;2024-03-23T23:02:56;90787.06;;;3.68;76.71
85130;BME280;75492;49.310;20.046;2024-03-23T23:07:58;90788.63;;;3.82;76.62
85130;BME280;75492;49.310;20.046;2024-03-23T23:12:59;90790.56;;;3.27;77.58
85130;BME280;75492;49.310;20.046;2024-03-23T23:18:03;90792.59;;;3.63;77.32
85130;BME280;75492;49.310;20.046;2024-03-23T23:23:04;90785.69;;;3.62;76.74
85130;BME280;75492;49.310;20.046;2024-03-23T23:28:05;90796.13;;;3.67;77.00
85130;BME280;75492;49.310;20.046;2024-03-23T23:33:08;90798.03;;;3.79;76.45
85130;BME280;75492;49.310;20.046;2024-03-23T23:38:10;90807.94;;;3.58;76.86
85130;BME280;75492;49.310;20.046;2024-03-23T23:43:11;90805.94;;;3.54;78.37
85130;BME280;75492;49.310;20.046;2024-03-23T23:48:14;90818.59;;;3.70;77.53
85130;BME280;75492;49.310;20.046;2024-03-23T23:53:16;90810.88;;;3.77;77.12
85130;BME280;75492;49.310;20.046;2024-03-23T23:58:17;90820.03;;;3.46;78.74
